GORO2: Illinois River, Gore, OK

                                SHEF ID:       GORO2     Illinois River near Gore, OK
STATION TYPE:
Regulating: Stage = 17.00, Flow = 14873

PRECIP PRECIP(A) STAGE STAGE(2) RIV-FLOW WTR-TEMP DIS-OXY BAT-LOAD
in in ft ft cfs F mg/l volt
Ccp-Rev Ccp-Rev Ccp-Rev Ccp-Rev Ccp-Rev Ccp-Rev Ccp-Rev Ccp-Rev
(America/Chicago)
05/04 00:00 0.00 ---- 11.25 11.24 3923 54.12 7.38 12.73
05/04 01:00 0.00 ---- 11.08 11.07 3711 54.05 7.39 12.72
05/04 02:00 0.00 ---- 11.01 11.01 3625 53.89 7.51 12.70
05/04 03:00 0.00 ---- 11.00 11.00 3613 53.89 7.60 12.67
05/04 04:00 0.00 ---- 11.01 11.00 3625 53.89 7.60 12.65
05/04 05:00 0.00 ---- 11.00 10.99 3613 53.87 7.55 12.63
05/04 06:00 0.00 ---- 11.21 11.21 3873 53.92 7.45 12.62
05/04 07:00 0.00 ---- 11.26 11.25 3936 54.12 7.32 12.61
05/04 08:00 0.00 ---- 11.26 11.25 3936 54.19 7.48 12.65
05/04 09:00 0.00 ---- 11.30 11.29 3986 54.50 7.89 12.75
05/04 10:00 0.00 ---- 11.30 11.29 3986 54.95 8.39 12.87
05/04 11:00 0.00 ---- 11.65 11.61 4445 55.24 8.71 13.02
05/04 12:00 0.00 ---- 12.43 12.42 5597 55.81 9.02 13.12
05/04 13:00 0.00 ---- 12.57 12.56 5817 55.96 9.17 13.12
05/04 14:00 0.00 ---- 12.63 12.62 5913 55.96 9.08 13.22
05/04 15:00 0.00 ---- 12.66 12.64 5961 55.85 8.99 13.15
05/04 16:00 0.00 ---- 12.68 12.66 5993 55.81 8.93 13.05
05/04 17:00 0.00 ---- 12.68 12.67 5993 55.81 8.81 12.99
05/04 18:00 0.00 ---- 12.68 12.67 5993 55.72 8.63 13.03
05/04 19:00 0.00 ---- 12.68 12.67 5993 55.71 8.47 13.01
05/04 20:00 0.00 ---- 12.68 12.67 5993 55.65 8.23 12.90
05/04 21:00 0.00 ---- 12.68 12.66 5993 55.62 8.16 12.80
05/04 22:00 0.00 ---- 12.68 12.66 5993 55.60 8.18 12.77
05/04 23:00 0.00 ---- 12.67 12.65 5977 55.76 8.17 12.76
Data processed at Tue 05May2026 04:35 GMT

NOTICE: If you are parsing this page

Please convert to using our Data API. Starting early 2026 we will be migrating to: https://water.usace.army.mil with modern pages rendered in JavaScript. When this migration completes you will no longer be able to scrape this page! CWMSDataAPI (CDA)

Timeseries IDs (TSIDs)

TSIDs used from left to right in the data table
GORE.Precip-Inc.Total.1Hour.1Hour.Ccp-Rev
GORE.Precip-Inc Alt.Total.1Hour.1Hour.Ccp-Rev
GORE.Stage.Inst.1Hour.0.Ccp-Rev
GORE.Stage-Alt.Inst.1Hour.0.Ccp-Rev
GORE.Flow.Inst.1Hour.0.Ccp-Rev
GORE.Temp-Water.Inst.1Hour.0.Ccp-Rev
GORE.Conc-DO.Inst.1Hour.0.Ccp-Rev
GORE.Volt-Battery Load.Inst.1Hour.0.Ccp-Rev

                            

All information presented herein is the property of the government of the United States of America and may be revised or deleted at any time without prior notice. Dissemination of this information without the expressed written consent of the Public Affairs Office, Tulsa District U.S. Army Corps of Engineers is strictly prohibited. These data are gathered electronically and, as presented, have NOT undergone any form of quality control. These data are NOT guaranteed to be valid or correct.